Terminal Aerodrome Forecast
Issued by NWS Charleston, WV

Current Version | Previous Version | Text Only | Print | Product List | Glossary Off
Versions: 1 2 3 4 5 6 7 8 9 10 11 12 13 14 15 16 17 18 19 20 21 22 23 24 25 26

000
FTUS41 KRLX 290200 AAB
TAFCRW
TAF AMD
KCRW 290233Z 2903/2924 27006KT 5SM -SHRA VCTS BKN014 OVC040CB
      TEMPO 2903/2905 29008G15KT 2SM SHRA BR BKN010 OVC025
     FM290500 28007KT 4SM -SHRA BR SCT010 OVC020
     FM290800 28004KT 6SM -RA BR BKN035 OVC070
     FM291200 VRB03KT P6SM BKN050
     FM291400 26006KT P6SM SCT050 BKN120
     FM291700 26008G15KT P6SM SCT045
     FM292300 29007KT P6SM SCT045=

USA.gov is the U.S. government's official web portal to all federal, state and local government web resources and services.